Nearby METAR Reports

 

KCMH - Columbus, Ohio, USA
Distance from station: SW 5mi, 8km
Updated: Fri, 10-Jul-2020 2:02pm EDT
Mostly cloudy
Mostly cloudy
 Wind from SE
Wind: SE 7 mph , 11 km/h
Temperature: 79°F , 26°C
Dew Point: 73°F , 23°C
Humidity: 84%
Barometer: 29.80 inHg , 1009.1 hPa
Clouds: Mostly cloudy
Visibility: 10 miles , 16 km
Cloud details: Few Clouds 4000 ft
Partly cloudy 5500 ft
Mostly cloudy 9000 ft
2020/07/10 18:02 KCMH 101802Z 13006KT 10SM FEW040 SCT055 BKN090 26/23 A2980 RMK AO2 LTG DSNT NE-S VCSH E T02560228
KOSU - Columbus/St Univ, Ohio, USA
Distance from station: W 14mi, 23km
Updated: Fri, 10-Jul-2020 1:53pm EDT
Clear
Clear
 Wind from SE
Wind: SE 13 mph , 20 km/h
Temperature: 84°F , 29°C
Heat Index: 90°F , 32°C
Dew Point: 73°F , 23°C
Humidity: 70%
Barometer: 29.79 inHg , 1008.8 hPa
Clouds: Clear
Visibility: 10 miles , 16 km
2020/07/10 17:53 KOSU 101753Z 13011KT 10SM CLR 29/23 A2979 RMK AO2 LTG DSNT ALQDS RAB01E09 SLP078 P0000 60026 T02890233 10317 20217 58012
 
KLCK - Rickenbacker Ang, Ohio, USA
Distance from station: SSW 17mi, 27km
Updated: Fri, 10-Jul-2020 1:55pm EDT
Clear
Clear
 Wind from SW
Wind: SW 8 mph , 13 km/h
Temperature: 79°F , 26°C
Dew Point: 70°F , 21°C
Humidity: 74%
Barometer: 29.79 inHg , 1008.8 hPa
Clouds: Clear
Visibility: 10 miles , 16 km
2020/07/10 17:55 KLCK 101755Z AUTO 22007KT 10SM CLR 26/21 A2979 RMK AO2 LTG DSNT NE AND SE T02590211 10345 21110
KVTA - Newark, Ohio, USA
Distance from station: E 19mi, 30km
Updated: Fri, 10-Jul-2020 2:24pm EDT
Nearby thunderstorm, Light rain, Overcast
Nearby thunderstorm, Light rain, Overcast
 Wind from S
Wind: S 3 mph , 6 km/h
Temperature: 75°F , 24°C
Dew Point: 70°F , 21°C
Humidity: 83%
Barometer: 29.79 inHg , 1008.8 hPa
Summary: Nearby thunderstorm, Light rain
Clouds: Overcast
Visibility: 5 miles , 8 km
Cloud details: Few Clouds 2500 ft
Mostly cloudy 7000 ft
Overcast 11000 ft
2020/07/10 18:24 KVTA 101824Z AUTO 17003KT 5SM VCTS -RA FEW025 BKN070 OVC110 24/21 A2979 RMK AO2 PK WND 29030/1755 WSHFT 1802 LTG DSNT NE AND S AND SW TSB04E24 PRESFR P0019 T02440206
 
KTZR - Columbus/Bolton, Ohio, USA
Distance from station: WSW 20mi, 31km
Updated: Fri, 10-Jul-2020 1:50pm EDT
Clear
Clear
 Wind from SSW
Wind: SSW 9 mph , 15 km/h
Temperature: 81°F , 27°C
Heat Index: 87°F , 31°C
Dew Point: 75°F , 24°C
Humidity: 84%
Barometer: 29.83 inHg , 1010.2 hPa
Clouds: Clear
Visibility: 10 miles , 16 km
2020/07/10 17:50 KTZR 101750Z 21008KT 10SM SKC 27/24 A2983
KLHQ - Lancaster, Ohio, USA
Distance from station: SSE 22mi, 36km
Updated: Fri, 10-Jul-2020 2:17pm EDT
Nearby thunderstorm, Few clouds
Nearby thunderstorm, Few clouds
 Wind from SSE
Wind: SSE 6 mph , 9 km/h
Temperature: 79°F , 26°C
Dew Point: 72°F , 22°C
Humidity: 79%
Barometer: 29.81 inHg , 1009.5 hPa
Summary: Nearby Thunderstorm
Clouds: Few Clouds
Visibility: 10 miles , 16 km
Cloud details: Few Clouds 3200 ft
Few Clouds 6000 ft
2020/07/10 18:17 KLHQ 101817Z AUTO 16005KT 10SM VCTS FEW032 FEW060 26/22 A2981 RMK AO2 LTG DSNT NE AND S AND SW RAE06 TSE11 P0001 T02610217
 
KDLZ - Delaware, Ohio, USA
Distance from station: NW 23mi, 36km
Updated: Fri, 10-Jul-2020 2:37pm EDT
Partly cloudy
Partly cloudy
 Wind from SE
Wind: SE 13 mph , 20 km/h
Temperature: 84°F , 29°C
Heat Index: 89°F , 32°C
Dew Point: 72°F , 22°C
Humidity: 66%
Barometer: 29.76 inHg , 1007.8 hPa
Clouds: Partly cloudy
Visibility: 10 miles , 16 km
Cloud details: Partly cloudy 3500 ft
Partly cloudy 4100 ft
Partly cloudy 5500 ft
2020/07/10 18:37 KDLZ 101837Z AUTO 14011KT 10SM SCT035 SCT041 SCT055 29/22 A2976 RMK AO2 LTG DSNT SW THRU N
K4I3 - Mt Vernon/Knox, Ohio, USA
Distance from station: NE 25mi, 40km
Updated: Fri, 10-Jul-2020 2:35pm EDT
Clear
Clear
 Wind from SSE
Wind: SSE 6 mph , 9 km/h
Temperature: 72°F , 22°C
Dew Point: 68°F , 20°C
Humidity: 88%
Barometer: 29.82 inHg , 1009.8 hPa
Clouds: Clear
Visibility: 10 miles , 16 km
2020/07/10 18:35 K4I3 101835Z AUTO 15005KT 10SM CLR 22/20 A2982 RMK AO2 LTG DSNT NE THRU SW
 
KMRT - Marysville, Ohio, USA
Distance from station: WNW 30mi, 49km
Updated: Fri, 10-Jul-2020 2:35pm EDT
Overcast
Overcast
 Wind from WNW
Wind: WNW 12 mph , 19 km/h, Gust: 30 mph , 48 km/h
Temperature: 77°F , 25°C
Dew Point: 68°F , 20°C
Humidity: 74%
Barometer: 29.79 inHg , 1008.8 hPa
Clouds: Overcast
Visibility: 1 mile , 2 km
Cloud details: Mostly cloudy 1200 ft
Mostly cloudy 2600 ft
Overcast 4300 ft
2020/07/10 18:35 KMRT 101835Z AUTO 29010G26KT 1SM BKN012 BKN026 OVC043 25/20 A2979 RMK AO2 P0005 T02450195
KMNN - Marion, Ohio, USA
Distance from station: NNW 41mi, 67km
Updated: Fri, 10-Jul-2020 2:45pm EDT
Thunderstorm, Clear
Thunderstorm, Clear
 Wind from S
Wind: S 14 mph , 22 km/h
Temperature: 88°F , 31°C
Heat Index: 95°F , 35°C
Dew Point: 72°F , 22°C
Humidity: 59%
Barometer: 29.76 inHg , 1007.8 hPa
Summary: Thunderstorm
Clouds: Clear
Visibility: 10 miles , 16 km
2020/07/10 18:45 KMNN 101845Z AUTO 18012KT 10SM TS CLR 31/22 A2976 RMK AO2 LTG DSNT SW-N TSB39 T03110217 $
 
KZZV - Zanesville, Ohio, USA
Distance from station: E 49mi, 79km
Updated: Fri, 10-Jul-2020 1:53pm EDT
Few Clouds
Few Clouds
 Wind from SSW
Wind: SSW 9 mph , 15 km/h
Temperature: 90°F , 32°C
Heat Index: 99°F , 37°C
Dew Point: 73°F , 23°C
Humidity: 59%
Barometer: 29.81 inHg , 1009.5 hPa
Clouds: Few Clouds
Visibility: 10 miles , 16 km
Cloud details: Few Clouds 4400 ft
2020/07/10 17:53 KZZV 101753Z AUTO 20008KT 10SM FEW044 32/23 A2981 RMK AO2 SLP083 T03170228 10322 20233 58023